sensor_id;sensor_type;location;lat;lon;timestamp;temperature;humidity
47482;DHT22;33219;47.410;9.730;2022-10-01T00:01:08;8.50;99.90
47482;DHT22;33219;47.410;9.730;2022-10-01T00:03:36;8.40;99.90
47482;DHT22;33219;47.410;9.730;2022-10-01T00:06:13;8.40;99.90
47482;DHT22;33219;47.410;9.730;2022-10-01T00:08:44;8.30;99.90
47482;DHT22;33219;47.410;9.730;2022-10-01T00:11:19;8.40;99.90
47482;DHT22;33219;47.410;9.730;2022-10-01T00:13:48;8.30;99.90
47482;DHT22;33219;47.410;9.730;2022-10-01T00:16:18;8.30;99.90
47482;DHT22;33219;47.410;9.730;2022-10-01T00:18:47;8.30;99.90
47482;DHT22;33219;47.410;9.730;2022-10-01T00:21:20;8.30;99.90
47482;DHT22;33219;47.410;9.730;2022-10-01T00:23:53;8.30;99.90
47482;DHT22;33219;47.410;9.730;2022-10-01T00:26:23;8.20;99.90
47482;DHT22;33219;47.410;9.730;2022-10-01T00:28:55;8.20;99.90
47482;DHT22;33219;47.410;9.730;2022-10-01T00:31:23;8.10;99.90
47482;DHT22;33219;47.410;9.730;2022-10-01T00:33:55;8.00;99.90
47482;DHT22;33219;47.410;9.730;2022-10-01T00:36:24;8.00;99.90
47482;DHT22;33219;47.410;9.730;2022-10-01T00:38:52;8.00;99.90
47482;DHT22;33219;47.410;9.730;2022-10-01T00:41:22;7.90;99.90
47482;DHT22;33219;47.410;9.730;2022-10-01T00:43:54;7.90;99.90
47482;DHT22;33219;47.410;9.730;2022-10-01T00:46:39;7.90;99.90
47482;DHT22;33219;47.410;9.730;2022-10-01T00:49:10;8.00;99.90
47482;DHT22;33219;47.410;9.730;2022-10-01T00:51:45;8.00;99.90
47482;DHT22;33219;47.410;9.730;2022-10-01T00:54:24;7.90;99.90
47482;DHT22;33219;47.410;9.730;2022-10-01T00:56:53;7.80;99.90
47482;DHT22;33219;47.410;9.730;2022-10-01T00:59:22;7.80;99.90
47482;DHT22;33219;47.410;9.730;2022-10-01T01:01:50;7.80;99.90
47482;DHT22;33219;47.410;9.730;2022-10-01T01:04:18;7.80;99.90
47482;DHT22;33219;47.410;9.730;2022-10-01T01:06:49;7.80;99.90
47482;DHT22;33219;47.410;9.730;2022-10-01T01:09:28;7.70;99.90
47482;DHT22;33219;47.410;9.730;2022-10-01T01:26:06;7.70;99.90
47482;DHT22;33219;47.410;9.730;2022-10-01T01:28:40;7.80;99.90
47482;DHT22;33219;47.410;9.730;2022-10-01T01:31:09;7.90;99.90
47482;DHT22;33219;47.410;9.730;2022-10-01T01:33:38;7.90;99.90
47482;DHT22;33219;47.410;9.730;2022-10-01T01:36:14;8.00;99.90
47482;DHT22;33219;47.410;9.730;2022-10-01T01:38:50;8.00;99.90
47482;DHT22;33219;47.410;9.730;2022-10-01T01:41:17;8.00;99.90
47482;DHT22;33219;47.410;9.730;2022-10-01T01:43:48;8.10;99.90
47482;DHT22;33219;47.410;9.730;2022-10-01T01:46:17;8.20;99.90
47482;DHT22;33219;47.410;9.730;2022-10-01T01:48:46;8.20;99.90
47482;DHT22;33219;47.410;9.730;2022-10-01T01:51:23;8.30;99.90
47482;DHT22;33219;47.410;9.730;2022-10-01T01:53:53;8.30;99.90
47482;DHT22;33219;47.410;9.730;2022-10-01T01:56:20;8.40;99.90
47482;DHT22;33219;47.410;9.730;2022-10-01T01:58:48;8.40;99.90
47482;DHT22;33219;47.410;9.730;2022-10-01T02:01:33;8.40;99.90
47482;DHT22;33219;47.410;9.730;2022-10-01T02:04:03;8.40;99.90
47482;DHT22;33219;47.410;9.730;2022-10-01T02:06:43;8.50;99.90
47482;DHT22;33219;47.410;9.730;2022-10-01T02:09:14;8.60;99.90
47482;DHT22;33219;47.410;9.730;2022-10-01T02:14:44;8.60;99.90
47482;DHT22;33219;47.410;9.730;2022-10-01T02:20:06;8.70;99.90
47482;DHT22;33219;47.410;9.730;2022-10-01T02:22:51;8.70;99.90
47482;DHT22;33219;47.410;9.730;2022-10-01T02:25:22;8.60;99.90
47482;DHT22;33219;47.410;9.730;2022-10-01T02:28:05;8.50;99.90
47482;DHT22;33219;47.410;9.730;2022-10-01T02:30:30;8.50;99.90
47482;DHT22;33219;47.410;9.730;2022-10-01T02:32:59;8.40;99.90
47482;DHT22;33219;47.410;9.730;2022-10-01T02:35:29;8.40;99.90
47482;DHT22;33219;47.410;9.730;2022-10-01T02:37:59;8.30;99.90
47482;DHT22;33219;47.410;9.730;2022-10-01T02:40:30;8.30;99.90
47482;DHT22;33219;47.410;9.730;2022-10-01T02:43:05;8.20;99.90
47482;DHT22;33219;47.410;9.730;2022-10-01T02:45:33;8.20;99.90
47482;DHT22;33219;47.410;9.730;2022-10-01T02:48:07;8.20;99.90
47482;DHT22;33219;47.410;9.730;2022-10-01T02:50:47;8.20;99.90
47482;DHT22;33219;47.410;9.730;2022-10-01T02:53:58;8.20;99.90
47482;DHT22;33219;47.410;9.730;2022-10-01T02:55:46;8.20;99.90
47482;DHT22;33219;47.410;9.730;2022-10-01T02:58:17;8.10;99.90
47482;DHT22;33219;47.410;9.730;2022-10-01T03:00:45;8.10;99.90
47482;DHT22;33219;47.410;9.730;2022-10-01T03:03:12;8.00;99.90
47482;DHT22;33219;47.410;9.730;2022-10-01T03:05:40;8.00;99.90
47482;DHT22;33219;47.410;9.730;2022-10-01T03:08:08;7.90;99.90
47482;DHT22;33219;47.410;9.730;2022-10-01T03:10:35;7.90;99.90
47482;DHT22;33219;47.410;9.730;2022-10-01T03:13:03;7.90;99.90
47482;DHT22;33219;47.410;9.730;2022-10-01T03:15:31;7.90;99.90
47482;DHT22;33219;47.410;9.730;2022-10-01T03:17:59;7.80;99.90
47482;DHT22;33219;47.410;9.730;2022-10-01T03:20:27;7.80;99.90
47482;DHT22;33219;47.410;9.730;2022-10-01T03:22:54;7.70;99.90
47482;DHT22;33219;47.410;9.730;2022-10-01T03:25:22;7.60;99.90
47482;DHT22;33219;47.410;9.730;2022-10-01T03:27:49;7.60;99.90
47482;DHT22;33219;47.410;9.730;2022-10-01T03:30:17;7.60;99.90
47482;DHT22;33219;47.410;9.730;2022-10-01T03:32:45;7.60;99.90
47482;DHT22;33219;47.410;9.730;2022-10-01T03:35:12;7.60;99.90
47482;DHT22;33219;47.410;9.730;2022-10-01T03:37:40;7.60;99.90
47482;DHT22;33219;47.410;9.730;2022-10-01T03:40:08;7.60;99.90
47482;DHT22;33219;47.410;9.730;2022-10-01T03:42:35;7.60;99.90
47482;DHT22;33219;47.410;9.730;2022-10-01T03:45:03;7.50;99.90
47482;DHT22;33219;47.410;9.730;2022-10-01T03:47:30;7.50;99.90
47482;DHT22;33219;47.410;9.730;2022-10-01T03:49:58;7.40;99.90
47482;DHT22;33219;47.410;9.730;2022-10-01T03:52:26;7.40;99.90
47482;DHT22;33219;47.410;9.730;2022-10-01T03:54:53;7.40;99.90
47482;DHT22;33219;47.410;9.730;2022-10-01T03:57:21;7.40;99.90
47482;DHT22;33219;47.410;9.730;2022-10-01T03:59:48;7.30;99.90
47482;DHT22;33219;47.410;9.730;2022-10-01T04:02:16;7.30;99.90
47482;DHT22;33219;47.410;9.730;2022-10-01T04:04:43;7.30;99.90
47482;DHT22;33219;47.410;9.730;2022-10-01T04:07:11;7.30;99.90
47482;DHT22;33219;47.410;9.730;2022-10-01T04:09:38;7.30;99.90
47482;DHT22;33219;47.410;9.730;2022-10-01T04:12:06;7.30;99.90
47482;DHT22;33219;47.410;9.730;2022-10-01T04:14:35;7.30;99.90
47482;DHT22;33219;47.410;9.730;2022-10-01T04:17:02;7.20;99.90
47482;DHT22;33219;47.410;9.730;2022-10-01T04:19:30;7.20;99.90
47482;DHT22;33219;47.410;9.730;2022-10-01T04:21:57;7.20;99.90
47482;DHT22;33219;47.410;9.730;2022-10-01T04:24:25;7.20;99.90
47482;DHT22;33219;47.410;9.730;2022-10-01T04:26:52;7.10;99.90
47482;DHT22;33219;47.410;9.730;2022-10-01T04:29:20;7.20;99.90
47482;DHT22;33219;47.410;9.730;2022-10-01T04:31:47;7.20;99.90
47482;DHT22;33219;47.410;9.730;2022-10-01T04:34:15;7.10;99.90
47482;DHT22;33219;47.410;9.730;2022-10-01T04:36:43;7.20;99.90
47482;DHT22;33219;47.410;9.730;2022-10-01T04:39:10;7.10;99.90
47482;DHT22;33219;47.410;9.730;2022-10-01T04:41:38;7.20;99.90
47482;DHT22;33219;47.410;9.730;2022-10-01T04:44:05;7.20;99.90
47482;DHT22;33219;47.410;9.730;2022-10-01T04:46:33;7.20;99.90
47482;DHT22;33219;47.410;9.730;2022-10-01T04:49:00;7.30;99.90
47482;DHT22;33219;47.410;9.730;2022-10-01T04:51:28;7.30;99.90
47482;DHT22;33219;47.410;9.730;2022-10-01T04:53:55;7.40;99.90
47482;DHT22;33219;47.410;9.730;2022-10-01T04:56:23;7.40;99.90
47482;DHT22;33219;47.410;9.730;2022-10-01T04:58:50;7.50;99.90
47482;DHT22;33219;47.410;9.730;2022-10-01T05:01:18;7.50;99.90
47482;DHT22;33219;47.410;9.730;2022-10-01T05:03:46;7.50;99.90
47482;DHT22;33219;47.410;9.730;2022-10-01T05:06:13;7.50;99.90
47482;DHT22;33219;47.410;9.730;2022-10-01T05:08:41;7.50;99.90
47482;DHT22;33219;47.410;9.730;2022-10-01T05:11:08;7.50;99.90
47482;DHT22;33219;47.410;9.730;2022-10-01T05:13:36;7.40;99.90
47482;DHT22;33219;47.410;9.730;2022-10-01T05:16:03;7.40;99.90
47482;DHT22;33219;47.410;9.730;2022-10-01T05:18:31;7.40;99.90
47482;DHT22;33219;47.410;9.730;2022-10-01T05:21:02;7.30;99.90
47482;DHT22;33219;47.410;9.730;2022-10-01T05:23:28;7.30;99.90
47482;DHT22;33219;47.410;9.730;2022-10-01T05:25:55;7.30;99.90
47482;DHT22;33219;47.410;9.730;2022-10-01T05:28:23;7.30;99.90
47482;DHT22;33219;47.410;9.730;2022-10-01T05:30:52;7.20;99.90
47482;DHT22;33219;47.410;9.730;2022-10-01T05:33:20;7.20;99.90
47482;DHT22;33219;47.410;9.730;2022-10-01T05:35:47;7.20;99.90
47482;DHT22;33219;47.410;9.730;2022-10-01T05:38:15;7.10;99.90
47482;DHT22;33219;47.410;9.730;2022-10-01T05:40:44;7.10;99.90
47482;DHT22;33219;47.410;9.730;2022-10-01T05:43:13;7.10;99.90
47482;DHT22;33219;47.410;9.730;2022-10-01T05:45:41;7.10;99.90
47482;DHT22;33219;47.410;9.730;2022-10-01T05:48:09;7.10;99.90
47482;DHT22;33219;47.410;9.730;2022-10-01T05:50:38;7.10;99.90
47482;DHT22;33219;47.410;9.730;2022-10-01T05:53:10;7.20;99.90
47482;DHT22;33219;47.410;9.730;2022-10-01T05:55:37;7.30;99.90
47482;DHT22;33219;47.410;9.730;2022-10-01T05:58:07;7.30;99.90
47482;DHT22;33219;47.410;9.730;2022-10-01T06:00:36;7.40;99.90
47482;DHT22;33219;47.410;9.730;2022-10-01T06:03:05;7.40;99.90
47482;DHT22;33219;47.410;9.730;2022-10-01T06:05:34;7.50;99.90
47482;DHT22;33219;47.410;9.730;2022-10-01T06:08:04;7.50;99.90
47482;DHT22;33219;47.410;9.730;2022-10-01T06:10:32;7.60;99.90
47482;DHT22;33219;47.410;9.730;2022-10-01T06:13:01;7.60;99.90
47482;DHT22;33219;47.410;9.730;2022-10-01T06:15:33;7.60;99.90
47482;DHT22;33219;47.410;9.730;2022-10-01T06:18:10;7.60;99.90
47482;DHT22;33219;47.410;9.730;2022-10-01T06:20:34;7.60;99.90
47482;DHT22;33219;47.410;9.730;2022-10-01T06:23:01;7.70;99.90
47482;DHT22;33219;47.410;9.730;2022-10-01T06:25:31;7.70;99.90
47482;DHT22;33219;47.410;9.730;2022-10-01T06:28:01;7.80;99.90
47482;DHT22;33219;47.410;9.730;2022-10-01T06:30:31;7.80;99.90
47482;DHT22;33219;47.410;9.730;2022-10-01T06:33:08;7.90;99.90
47482;DHT22;33219;47.410;9.730;2022-10-01T06:35:41;7.90;99.90
47482;DHT22;33219;47.410;9.730;2022-10-01T06:38:09;7.90;99.90
47482;DHT22;33219;47.410;9.730;2022-10-01T06:40:38;7.90;99.90
47482;DHT22;33219;47.410;9.730;2022-10-01T06:43:06;8.00;99.90
47482;DHT22;33219;47.410;9.730;2022-10-01T06:45:38;8.00;99.90
47482;DHT22;33219;47.410;9.730;2022-10-01T06:48:14;8.00;99.90
47482;DHT22;33219;47.410;9.730;2022-10-01T06:50:44;8.10;99.90
47482;DHT22;33219;47.410;9.730;2022-10-01T06:53:13;8.20;99.90
47482;DHT22;33219;47.410;9.730;2022-10-01T06:55:41;8.30;99.90
47482;DHT22;33219;47.410;9.730;2022-10-01T06:58:17;8.40;99.90
47482;DHT22;33219;47.410;9.730;2022-10-01T07:00:47;8.40;99.90
47482;DHT22;33219;47.410;9.730;2022-10-01T07:03:17;8.50;99.90
47482;DHT22;33219;47.410;9.730;2022-10-01T07:05:48;8.50;99.90
47482;DHT22;33219;47.410;9.730;2022-10-01T07:08:16;8.60;99.90
47482;DHT22;33219;47.410;9.730;2022-10-01T07:10:43;8.70;99.90
47482;DHT22;33219;47.410;9.730;2022-10-01T07:13:16;8.70;99.90
47482;DHT22;33219;47.410;9.730;2022-10-01T07:15:46;8.70;99.90
47482;DHT22;33219;47.410;9.730;2022-10-01T07:18:13;8.80;99.90
47482;DHT22;33219;47.410;9.730;2022-10-01T07:20:42;8.80;99.90
47482;DHT22;33219;47.410;9.730;2022-10-01T07:23:11;8.90;99.90
47482;DHT22;33219;47.410;9.730;2022-10-01T07:25:40;8.90;99.90
47482;DHT22;33219;47.410;9.730;2022-10-01T07:28:13;8.90;99.90
47482;DHT22;33219;47.410;9.730;2022-10-01T07:31:05;8.80;99.90
47482;DHT22;33219;47.410;9.730;2022-10-01T07:33:39;8.80;99.90
47482;DHT22;33219;47.410;9.730;2022-10-01T07:36:08;8.70;99.90
47482;DHT22;33219;47.410;9.730;2022-10-01T07:38:36;8.80;99.90
47482;DHT22;33219;47.410;9.730;2022-10-01T07:41:04;8.80;99.90
47482;DHT22;33219;47.410;9.730;2022-10-01T07:43:32;8.80;99.90
47482;DHT22;33219;47.410;9.730;2022-10-01T07:46:01;8.90;99.90
47482;DHT22;33219;47.410;9.730;2022-10-01T07:48:30;8.90;99.90
47482;DHT22;33219;47.410;9.730;2022-10-01T07:50:58;9.00;99.90
47482;DHT22;33219;47.410;9.730;2022-10-01T07:53:25;9.10;99.90
47482;DHT22;33219;47.410;9.730;2022-10-01T07:55:53;9.10;99.90
47482;DHT22;33219;47.410;9.730;2022-10-01T07:58:21;9.10;99.90
47482;DHT22;33219;47.410;9.730;2022-10-01T08:00:49;9.10;99.90
47482;DHT22;33219;47.410;9.730;2022-10-01T08:03:18;9.30;99.90
47482;DHT22;33219;47.410;9.730;2022-10-01T08:05:46;9.30;99.90
47482;DHT22;33219;47.410;9.730;2022-10-01T08:08:15;9.40;99.90
47482;DHT22;33219;47.410;9.730;2022-10-01T08:10:42;9.50;99.90
47482;DHT22;33219;47.410;9.730;2022-10-01T08:13:14;9.60;99.90
47482;DHT22;33219;47.410;9.730;2022-10-01T08:15:44;9.70;99.90
47482;DHT22;33219;47.410;9.730;2022-10-01T08:18:12;9.80;99.90
47482;DHT22;33219;47.410;9.730;2022-10-01T08:20:40;9.90;99.90
47482;DHT22;33219;47.410;9.730;2022-10-01T08:23:09;10.00;99.90
47482;DHT22;33219;47.410;9.730;2022-10-01T08:25:37;10.00;99.90
47482;DHT22;33219;47.410;9.730;2022-10-01T08:28:06;10.10;99.90
47482;DHT22;33219;47.410;9.730;2022-10-01T08:30:36;10.20;99.90
47482;DHT22;33219;47.410;9.730;2022-10-01T08:33:05;10.30;99.90
47482;DHT22;33219;47.410;9.730;2022-10-01T08:35:33;10.40;99.90
47482;DHT22;33219;47.410;9.730;2022-10-01T08:38:06;10.60;99.90
47482;DHT22;33219;47.410;9.730;2022-10-01T08:40:35;10.50;99.90
47482;DHT22;33219;47.410;9.730;2022-10-01T08:43:05;10.60;99.90
47482;DHT22;33219;47.410;9.730;2022-10-01T08:45:48;10.60;99.90
47482;DHT22;33219;47.410;9.730;2022-10-01T08:48:24;10.60;99.90
47482;DHT22;33219;47.410;9.730;2022-10-01T08:56:00;10.50;99.90
47482;DHT22;33219;47.410;9.730;2022-10-01T08:58:31;10.50;99.90
47482;DHT22;33219;47.410;9.730;2022-10-01T09:00:59;10.40;99.90
47482;DHT22;33219;47.410;9.730;2022-10-01T09:03:28;10.30;99.90
47482;DHT22;33219;47.410;9.730;2022-10-01T09:06:05;10.40;99.90
47482;DHT22;33219;47.410;9.730;2022-10-01T09:08:45;10.40;99.90
47482;DHT22;33219;47.410;9.730;2022-10-01T09:14:08;10.30;99.90
47482;DHT22;33219;47.410;9.730;2022-10-01T09:16:50;10.30;99.90
47482;DHT22;33219;47.410;9.730;2022-10-01T09:24:43;10.20;99.90
47482;DHT22;33219;47.410;9.730;2022-10-01T09:27:24;10.20;99.90
47482;DHT22;33219;47.410;9.730;2022-10-01T09:29:51;10.20;99.90
47482;DHT22;33219;47.410;9.730;2022-10-01T09:32:25;10.20;99.90
47482;DHT22;33219;47.410;9.730;2022-10-01T09:34:50;10.20;99.90
47482;DHT22;33219;47.410;9.730;2022-10-01T09:37:29;10.10;99.90
47482;DHT22;33219;47.410;9.730;2022-10-01T09:40:26;10.20;99.90
47482;DHT22;33219;47.410;9.730;2022-10-01T09:42:54;10.20;99.90
47482;DHT22;33219;47.410;9.730;2022-10-01T09:45:23;10.20;99.90
47482;DHT22;33219;47.410;9.730;2022-10-01T09:47:53;10.30;99.90
47482;DHT22;33219;47.410;9.730;2022-10-01T09:50:39;10.30;99.90
47482;DHT22;33219;47.410;9.730;2022-10-01T09:53:18;10.20;99.90
47482;DHT22;33219;47.410;9.730;2022-10-01T09:55:39;10.20;99.90
47482;DHT22;33219;47.410;9.730;2022-10-01T10:00:38;10.30;99.90
47482;DHT22;33219;47.410;9.730;2022-10-01T10:03:06;10.30;99.90
47482;DHT22;33219;47.410;9.730;2022-10-01T10:05:45;10.30;99.90
47482;DHT22;33219;47.410;9.730;2022-10-01T10:08:26;10.40;99.90
47482;DHT22;33219;47.410;9.730;2022-10-01T10:13:31;10.30;99.90
47482;DHT22;33219;47.410;9.730;2022-10-01T10:16:19;10.30;99.90
47482;DHT22;33219;47.410;9.730;2022-10-01T10:18:50;10.30;99.90
47482;DHT22;33219;47.410;9.730;2022-10-01T10:21:20;10.30;99.90
47482;DHT22;33219;47.410;9.730;2022-10-01T10:23:53;10.40;99.90
47482;DHT22;33219;47.410;9.730;2022-10-01T10:26:30;10.40;99.90
47482;DHT22;33219;47.410;9.730;2022-10-01T10:28:59;10.40;99.90
47482;DHT22;33219;47.410;9.730;2022-10-01T10:31:39;10.40;99.90
47482;DHT22;33219;47.410;9.730;2022-10-01T10:34:15;10.40;99.90
47482;DHT22;33219;47.410;9.730;2022-10-01T10:36:44;10.50;99.90
47482;DHT22;33219;47.410;9.730;2022-10-01T10:39:23;10.50;99.90
47482;DHT22;33219;47.410;9.730;2022-10-01T10:41:53;10.40;99.90
47482;DHT22;33219;47.410;9.730;2022-10-01T10:44:24;10.40;99.90
47482;DHT22;33219;47.410;9.730;2022-10-01T10:46:58;10.30;99.90
47482;DHT22;33219;47.410;9.730;2022-10-01T10:49:26;10.20;99.90
47482;DHT22;33219;47.410;9.730;2022-10-01T10:51:57;10.20;99.90
47482;DHT22;33219;47.410;9.730;2022-10-01T10:54:34;10.20;99.90
47482;DHT22;33219;47.410;9.730;2022-10-01T10:57:26;10.20;99.90
47482;DHT22;33219;47.410;9.730;2022-10-01T11:00:14;10.10;99.90
47482;DHT22;33219;47.410;9.730;2022-10-01T11:02:52;10.20;99.90
47482;DHT22;33219;47.410;9.730;2022-10-01T11:05:20;10.30;99.90
47482;DHT22;33219;47.410;9.730;2022-10-01T11:07:55;10.30;99.90
47482;DHT22;33219;47.410;9.730;2022-10-01T11:10:52;10.30;99.90
47482;DHT22;33219;47.410;9.730;2022-10-01T11:21:21;10.60;99.90
47482;DHT22;33219;47.410;9.730;2022-10-01T11:26:51;10.70;99.90
47482;DHT22;33219;47.410;9.730;2022-10-01T11:32:36;10.90;99.90
47482;DHT22;33219;47.410;9.730;2022-10-01T11:40:42;10.70;99.90
47482;DHT22;33219;47.410;9.730;2022-10-01T11:43:20;10.70;99.90
47482;DHT22;33219;47.410;9.730;2022-10-01T11:45:50;10.60;99.90
47482;DHT22;33219;47.410;9.730;2022-10-01T11:48:59;10.60;99.90
47482;DHT22;33219;47.410;9.730;2022-10-01T11:51:26;10.60;99.90
47482;DHT22;33219;47.410;9.730;2022-10-01T11:53:56;10.50;99.90
47482;DHT22;33219;47.410;9.730;2022-10-01T11:56:44;10.50;99.90
47482;DHT22;33219;47.410;9.730;2022-10-01T11:59:32;10.50;99.90
47482;DHT22;33219;47.410;9.730;2022-10-01T12:04:57;10.50;99.90
47482;DHT22;33219;47.410;9.730;2022-10-01T12:07:43;10.50;99.90
47482;DHT22;33219;47.410;9.730;2022-10-01T12:13:00;10.50;99.90
47482;DHT22;33219;47.410;9.730;2022-10-01T12:15:46;10.50;99.90
47482;DHT22;33219;47.410;9.730;2022-10-01T12:23:09;10.50;99.90
47482;DHT22;33219;47.410;9.730;2022-10-01T12:28:16;10.50;99.90
47482;DHT22;33219;47.410;9.730;2022-10-01T12:30:53;10.50;99.90
47482;DHT22;33219;47.410;9.730;2022-10-01T12:33:38;10.50;99.90
47482;DHT22;33219;47.410;9.730;2022-10-01T12:36:20;10.50;99.90
47482;DHT22;33219;47.410;9.730;2022-10-01T12:39:10;10.50;99.90
47482;DHT22;33219;47.410;9.730;2022-10-01T12:47:13;10.60;99.90
47482;DHT22;33219;47.410;9.730;2022-10-01T12:58:15;10.60;99.90
47482;DHT22;33219;47.410;9.730;2022-10-01T13:01:04;10.60;99.90
47482;DHT22;33219;47.410;9.730;2022-10-01T13:06:32;10.50;99.90
47482;DHT22;33219;47.410;9.730;2022-10-01T13:09:22;10.60;99.90
47482;DHT22;33219;47.410;9.730;2022-10-01T13:14:19;10.60;99.90
47482;DHT22;33219;47.410;9.730;2022-10-01T13:17:19;10.60;99.90
47482;DHT22;33219;47.410;9.730;2022-10-01T13:19:53;10.60;99.90
47482;DHT22;33219;47.410;9.730;2022-10-01T13:22:33;10.60;99.90
47482;DHT22;33219;47.410;9.730;2022-10-01T13:27:43;10.60;99.90
47482;DHT22;33219;47.410;9.730;2022-10-01T13:30:20;10.50;99.90
47482;DHT22;33219;47.410;9.730;2022-10-01T13:32:53;10.50;99.90
47482;DHT22;33219;47.410;9.730;2022-10-01T13:35:33;10.60;99.90
47482;DHT22;33219;47.410;9.730;2022-10-01T13:37:56;10.60;99.90
47482;DHT22;33219;47.410;9.730;2022-10-01T13:40:32;10.60;99.90
47482;DHT22;33219;47.410;9.730;2022-10-01T13:43:02;10.60;99.90
47482;DHT22;33219;47.410;9.730;2022-10-01T13:48:15;10.60;99.90
47482;DHT22;33219;47.410;9.730;2022-10-01T13:53:44;10.60;99.90
47482;DHT22;33219;47.410;9.730;2022-10-01T13:56:04;10.60;99.90
47482;DHT22;33219;47.410;9.730;2022-10-01T13:58:37;10.50;99.90
47482;DHT22;33219;47.410;9.730;2022-10-01T14:03:50;10.60;99.90
47482;DHT22;33219;47.410;9.730;2022-10-01T14:06:23;10.60;99.90
47482;DHT22;33219;47.410;9.730;2022-10-01T14:09:03;10.50;99.90
47482;DHT22;33219;47.410;9.730;2022-10-01T14:11:30;10.60;99.90
47482;DHT22;33219;47.410;9.730;2022-10-01T14:17:08;10.60;99.90
47482;DHT22;33219;47.410;9.730;2022-10-01T14:19:43;10.60;99.90
47482;DHT22;33219;47.410;9.730;2022-10-01T14:25:31;10.60;99.90
47482;DHT22;33219;47.410;9.730;2022-10-01T14:31:06;10.60;99.90
47482;DHT22;33219;47.410;9.730;2022-10-01T14:36:16;10.60;99.90
47482;DHT22;33219;47.410;9.730;2022-10-01T14:38:44;10.60;99.90
47482;DHT22;33219;47.410;9.730;2022-10-01T14:41:17;10.60;99.90
47482;DHT22;33219;47.410;9.730;2022-10-01T14:43:45;10.50;99.90
47482;DHT22;33219;47.410;9.730;2022-10-01T14:46:16;10.50;99.90
47482;DHT22;33219;47.410;9.730;2022-10-01T14:48:54;10.50;99.90
47482;DHT22;33219;47.410;9.730;2022-10-01T14:51:26;10.50;99.90
47482;DHT22;33219;47.410;9.730;2022-10-01T14:53:50;10.40;99.90
47482;DHT22;33219;47.410;9.730;2022-10-01T14:56:19;10.40;99.90
47482;DHT22;33219;47.410;9.730;2022-10-01T14:58:58;10.50;99.90
47482;DHT22;33219;47.410;9.730;2022-10-01T15:01:23;10.50;99.90
47482;DHT22;33219;47.410;9.730;2022-10-01T15:03:52;10.40;99.90
47482;DHT22;33219;47.410;9.730;2022-10-01T15:06:26;10.30;99.90
47482;DHT22;33219;47.410;9.730;2022-10-01T15:09:04;10.30;99.90
47482;DHT22;33219;47.410;9.730;2022-10-01T15:11:28;10.30;99.90
47482;DHT22;33219;47.410;9.730;2022-10-01T15:14:01;10.30;99.90
47482;DHT22;33219;47.410;9.730;2022-10-01T15:16:29;10.20;99.90
47482;DHT22;33219;47.410;9.730;2022-10-01T15:19:00;10.30;99.90
47482;DHT22;33219;47.410;9.730;2022-10-01T15:21:40;10.20;99.90
47482;DHT22;33219;47.410;9.730;2022-10-01T15:26:46;10.20;99.90
47482;DHT22;33219;47.410;9.730;2022-10-01T15:29:15;10.20;99.90
47482;DHT22;33219;47.410;9.730;2022-10-01T15:31:48;10.20;99.90
47482;DHT22;33219;47.410;9.730;2022-10-01T15:34:18;10.30;99.90
47482;DHT22;33219;47.410;9.730;2022-10-01T15:36:48;10.30;99.90
47482;DHT22;33219;47.410;9.730;2022-10-01T15:39:30;10.40;99.90
47482;DHT22;33219;47.410;9.730;2022-10-01T15:41:57;10.50;99.90
47482;DHT22;33219;47.410;9.730;2022-10-01T15:44:43;10.50;99.90
47482;DHT22;33219;47.410;9.730;2022-10-01T15:47:31;10.60;99.90
47482;DHT22;33219;47.410;9.730;2022-10-01T15:55:21;10.70;99.90
47482;DHT22;33219;47.410;9.730;2022-10-01T15:57:53;10.80;99.90
47482;DHT22;33219;47.410;9.730;2022-10-01T16:00:25;10.70;99.90
47482;DHT22;33219;47.410;9.730;2022-10-01T16:02:52;10.70;99.90
47482;DHT22;33219;47.410;9.730;2022-10-01T16:05:24;10.70;99.90
47482;DHT22;33219;47.410;9.730;2022-10-01T16:07:54;10.70;99.90
47482;DHT22;33219;47.410;9.730;2022-10-01T16:12:55;10.80;99.90
47482;DHT22;33219;47.410;9.730;2022-10-01T16:15:30;10.80;99.90
47482;DHT22;33219;47.410;9.730;2022-10-01T16:17:59;10.90;99.90
47482;DHT22;33219;47.410;9.730;2022-10-01T16:20:39;10.90;99.90
47482;DHT22;33219;47.410;9.730;2022-10-01T16:26:05;11.00;99.90
47482;DHT22;33219;47.410;9.730;2022-10-01T16:28:32;11.00;99.90
47482;DHT22;33219;47.410;9.730;2022-10-01T16:31:01;11.00;99.90
47482;DHT22;33219;47.410;9.730;2022-10-01T16:33:29;11.10;99.90
47482;DHT22;33219;47.410;9.730;2022-10-01T16:36:08;11.00;99.90
47482;DHT22;33219;47.410;9.730;2022-10-01T16:38:36;11.10;99.90
47482;DHT22;33219;47.410;9.730;2022-10-01T16:41:04;11.10;99.90
47482;DHT22;33219;47.410;9.730;2022-10-01T16:43:32;11.10;99.90
47482;DHT22;33219;47.410;9.730;2022-10-01T16:45:59;11.10;99.90
47482;DHT22;33219;47.410;9.730;2022-10-01T16:48:27;11.10;99.90
47482;DHT22;33219;47.410;9.730;2022-10-01T16:50:55;11.00;99.90
47482;DHT22;33219;47.410;9.730;2022-10-01T16:53:24;10.90;99.90
47482;DHT22;33219;47.410;9.730;2022-10-01T16:55:52;10.90;99.90
47482;DHT22;33219;47.410;9.730;2022-10-01T16:58:22;10.70;99.90
47482;DHT22;33219;47.410;9.730;2022-10-01T17:00:50;10.70;99.90
47482;DHT22;33219;47.410;9.730;2022-10-01T17:03:20;10.60;99.90
47482;DHT22;33219;47.410;9.730;2022-10-01T17:05:47;10.50;99.90
47482;DHT22;33219;47.410;9.730;2022-10-01T17:08:15;10.50;99.90
47482;DHT22;33219;47.410;9.730;2022-10-01T17:10:44;10.50;99.90
47482;DHT22;33219;47.410;9.730;2022-10-01T17:13:14;10.50;99.90
47482;DHT22;33219;47.410;9.730;2022-10-01T17:15:42;10.50;99.90
47482;DHT22;33219;47.410;9.730;2022-10-01T17:18:10;10.50;99.90
47482;DHT22;33219;47.410;9.730;2022-10-01T17:20:39;10.50;99.90
47482;DHT22;33219;47.410;9.730;2022-10-01T17:23:09;10.50;99.90
47482;DHT22;33219;47.410;9.730;2022-10-01T17:25:37;10.50;99.90
47482;DHT22;33219;47.410;9.730;2022-10-01T17:28:06;10.50;99.90
47482;DHT22;33219;47.410;9.730;2022-10-01T17:30:35;10.60;99.90
47482;DHT22;33219;47.410;9.730;2022-10-01T17:33:04;10.50;99.90
47482;DHT22;33219;47.410;9.730;2022-10-01T17:35:32;10.60;99.90
47482;DHT22;33219;47.410;9.730;2022-10-01T17:38:00;10.60;99.90
47482;DHT22;33219;47.410;9.730;2022-10-01T17:40:27;10.60;99.90
47482;DHT22;33219;47.410;9.730;2022-10-01T17:42:55;10.60;99.90
47482;DHT22;33219;47.410;9.730;2022-10-01T17:45:22;10.60;99.90
47482;DHT22;33219;47.410;9.730;2022-10-01T17:47:50;10.60;99.90
47482;DHT22;33219;47.410;9.730;2022-10-01T17:50:17;10.60;99.90
47482;DHT22;33219;47.410;9.730;2022-10-01T17:52:48;10.60;99.90
47482;DHT22;33219;47.410;9.730;2022-10-01T17:55:16;10.60;99.90
47482;DHT22;33219;47.410;9.730;2022-10-01T17:57:45;10.60;99.90
47482;DHT22;33219;47.410;9.730;2022-10-01T18:00:13;10.60;99.90
47482;DHT22;33219;47.410;9.730;2022-10-01T18:02:40;10.60;99.90
47482;DHT22;33219;47.410;9.730;2022-10-01T18:05:08;10.60;99.90
47482;DHT22;33219;47.410;9.730;2022-10-01T18:07:37;10.60;99.90
47482;DHT22;33219;47.410;9.730;2022-10-01T18:10:08;10.70;99.90